createdAt,value
2018-03-07T00:00:43.490Z,69.93
2018-03-07T00:03:11.833Z,67.17
2018-03-07T00:05:39.394Z,74.23
2018-03-07T00:08:07.187Z,69.57
2018-03-07T00:10:34.987Z,66.37
2018-03-07T00:13:02.568Z,72.97
2018-03-07T00:15:30.462Z,74.53
2018-03-07T00:17:58.813Z,69.57
2018-03-07T00:20:26.393Z,68.10
2018-03-07T00:22:53.978Z,75.80
2018-03-07T00:25:22.419Z,74.83
2018-03-07T00:27:49.978Z,70.63
2018-03-07T00:30:17.568Z,76.30
2018-03-07T00:32:45.914Z,76.80
2018-03-07T00:35:13.543Z,76.10
2018-03-07T00:37:41.115Z,80.27
2018-03-07T00:40:08.709Z,69.30
2018-03-07T00:42:37.378Z,69.13
2018-03-07T00:45:05.949Z,67.40
2018-03-07T00:47:33.582Z,71.43
2018-03-07T00:50:01.425Z,71.10
2018-03-07T00:52:29.752Z,73.03
2018-03-07T00:54:57.311Z,80.03
2018-03-07T00:57:24.897Z,78.93
2018-03-07T00:59:53.990Z,81.43
2018-03-07T01:02:22.426Z,76.30
2018-03-07T01:04:49.993Z,73.57
2018-03-07T01:07:17.579Z,79.40
2018-03-07T01:09:45.173Z,76.70
2018-03-07T01:12:13.505Z,72.57
2018-03-07T01:14:41.083Z,69.73
2018-03-07T01:17:08.689Z,72.47
2018-03-07T01:19:36.264Z,81.23
2018-03-07T01:22:03.847Z,68.53
2018-03-07T01:24:31.443Z,71.93
2018-03-07T01:26:59.761Z,72.87
2018-03-07T01:29:27.370Z,65.07
2018-03-07T01:31:56.187Z,64.93
2018-03-07T01:34:23.744Z,61.93
2018-03-07T01:36:51.305Z,68.67
2018-03-07T01:39:19.262Z,65.30
2018-03-07T01:41:47.694Z,76.70
2018-03-07T01:44:15.261Z,73.40
2018-03-07T01:46:42.853Z,72.27
2018-03-07T01:49:11.244Z,76.20
2018-03-07T01:51:50.675Z,80.97
2018-03-07T01:54:19.028Z,84.07
2018-03-07T01:56:48.407Z,80.03
2018-03-07T01:59:16.009Z,87.13
2018-03-07T02:01:44.352Z,87.40
2018-03-07T02:04:12.687Z,86.37
2018-03-07T02:06:40.337Z,92.17
2018-03-07T02:09:07.930Z,88.03
2018-03-07T02:11:35.512Z,104.30
2018-03-07T02:14:04.904Z,112.43
2018-03-07T02:16:32.564Z,126.73
2018-03-07T02:19:00.143Z,119.10
2018-03-07T02:21:27.995Z,134.43
2018-03-07T02:23:56.328Z,131.80
2018-03-07T02:26:23.906Z,136.67
2018-03-07T02:28:51.527Z,149.00
2018-03-07T02:31:19.908Z,144.13
2018-03-07T02:33:47.478Z,151.00
2018-03-07T02:36:26.945Z,154.73
2018-03-07T02:38:54.509Z,155.43
2018-03-07T02:41:22.072Z,139.87
2018-03-07T02:43:49.692Z,143.97
2018-03-07T02:46:17.286Z,143.33
2018-03-07T02:48:44.868Z,118.20
2018-03-07T02:51:12.481Z,115.00
2018-03-07T02:53:40.091Z,131.30
2018-03-07T02:56:07.923Z,113.03
2018-03-07T02:58:35.552Z,118.10
2018-03-07T03:01:03.120Z,143.07
2018-03-07T03:03:30.735Z,160.57
2018-03-07T03:05:58.356Z,172.87
2018-03-07T03:08:25.920Z,155.80
2018-03-07T03:10:53.541Z,196.43
2018-03-07T03:13:21.926Z,236.30
2018-03-07T03:15:49.540Z,157.00
2018-03-07T03:18:17.113Z,153.03
2018-03-07T03:20:44.710Z,202.17
2018-03-07T03:23:12.302Z,174.40
2018-03-07T03:25:39.892Z,143.00
2018-03-07T03:28:08.665Z,268.13
2018-03-07T03:30:37.004Z,227.43
2018-03-07T03:33:04.568Z,199.70
2018-03-07T03:35:32.165Z,183.40
2018-03-07T03:37:59.712Z,176.57
2018-03-07T03:40:27.324Z,196.67
2018-03-07T03:42:54.915Z,191.50
2018-03-07T03:45:22.493Z,238.13
2018-03-07T03:47:50.102Z,243.27
2018-03-07T03:50:17.681Z,193.93
2018-03-07T03:52:45.261Z,194.00
2018-03-07T03:55:12.851Z,174.00
2018-03-07T03:57:41.174Z,161.97
2018-03-07T04:00:08.935Z,163.23
2018-03-07T04:02:36.791Z,164.87
2018-03-07T04:05:04.368Z,163.07
2018-03-07T04:07:31.929Z,188.57
2018-03-07T04:09:59.523Z,182.17
2018-03-07T04:12:27.393Z,165.03
2018-03-07T04:14:55.728Z,180.37
2018-03-07T04:17:23.291Z,194.37
2018-03-07T04:19:50.897Z,204.27
2018-03-07T04:22:18.471Z,167.80
2018-03-07T04:24:46.948Z,160.37
2018-03-07T04:27:15.324Z,136.13
2018-03-07T04:29:43.652Z,149.30
2018-03-07T04:32:11.225Z,137.50
2018-03-07T04:34:38.835Z,134.20
2018-03-07T04:37:06.407Z,126.80
2018-03-07T04:39:34.140Z,131.80
2018-03-07T04:42:02.792Z,121.30
2018-03-07T04:44:30.369Z,143.83
2018-03-07T04:46:59.442Z,208.10
2018-03-07T04:49:27.315Z,258.40
2018-03-07T04:51:54.895Z,271.77
2018-03-07T04:54:23.232Z,322.67
2018-03-07T04:56:51.124Z,383.23
2018-03-07T04:59:18.698Z,405.73
2018-03-07T05:01:47.071Z,436.93
2018-03-07T05:04:15.461Z,579.17
2018-03-07T05:06:43.050Z,289.67
2018-03-07T05:09:10.671Z,304.27
2018-03-07T05:11:39.030Z,238.00
2018-03-07T05:14:06.603Z,207.77
2018-03-07T05:16:34.188Z,322.23
2018-03-07T05:19:02.845Z,413.97
2018-03-07T05:21:31.922Z,358.27
2018-03-07T05:23:59.517Z,286.00
2018-03-07T05:26:28.141Z,542.53
2018-03-07T05:28:55.715Z,302.10
2018-03-07T05:31:23.299Z,565.63
2018-03-07T05:33:50.926Z,317.50
2018-03-07T05:36:18.495Z,469.37
2018-03-07T05:38:46.084Z,191.10
2018-03-07T05:41:13.689Z,170.97
2018-03-07T05:43:41.281Z,254.87
2018-03-07T05:46:08.848Z,239.40
2018-03-07T05:48:36.465Z,289.17
2018-03-07T05:51:04.062Z,399.93
2018-03-07T05:53:31.646Z,458.57
2018-03-07T05:56:00.410Z,343.23
2018-03-07T05:58:28.047Z,169.50
2018-03-07T06:00:55.618Z,140.07
2018-03-07T06:03:23.482Z,140.90
2018-03-07T06:05:51.051Z,175.17
2018-03-07T06:08:18.613Z,404.87
2018-03-07T06:10:46.482Z,376.17
2018-03-07T06:13:14.070Z,444.87
2018-03-07T06:15:42.424Z,422.00
2018-03-07T06:18:10.034Z,461.10
2018-03-07T06:20:37.621Z,505.30
2018-03-07T06:23:05.191Z,272.73
2018-03-07T06:25:33.062Z,288.00
2018-03-07T06:28:00.644Z,271.47
2018-03-07T06:30:29.028Z,315.37
2018-03-07T06:32:57.389Z,214.37
2018-03-07T06:35:24.957Z,267.57
2018-03-07T06:37:53.372Z,162.27
2018-03-07T06:40:21.276Z,148.67
2018-03-07T06:42:48.854Z,146.57
2018-03-07T06:45:16.430Z,147.90
2018-03-07T06:47:45.082Z,147.03
2018-03-07T06:50:12.648Z,125.17
2018-03-07T06:52:40.310Z,109.60
2018-03-07T06:55:08.259Z,107.30
2018-03-07T06:57:35.857Z,105.50
2018-03-07T07:00:04.181Z,98.20
2018-03-07T07:02:31.788Z,95.37
2018-03-07T07:05:00.128Z,92.20
2018-03-07T07:07:27.711Z,94.80
2018-03-07T07:09:56.108Z,95.87
2018-03-07T07:12:24.466Z,107.00
2018-03-07T07:14:52.041Z,107.37
2018-03-07T07:17:20.440Z,119.17
2018-03-07T07:19:48.050Z,108.30
2018-03-07T07:22:15.641Z,103.97
2018-03-07T07:24:43.956Z,99.37
2018-03-07T07:27:11.567Z,97.23
2018-03-07T07:29:39.157Z,99.80
2018-03-07T07:32:06.724Z,95.20
2018-03-07T07:34:34.676Z,92.90
2018-03-07T07:37:02.277Z,96.17
2018-03-07T07:39:29.847Z,92.57
2018-03-07T07:41:57.506Z,92.83
2018-03-07T07:44:25.852Z,89.20
2018-03-07T07:46:53.455Z,87.57
2018-03-07T07:49:21.045Z,94.43
2018-03-07T07:51:49.389Z,87.37
2018-03-07T07:54:16.959Z,93.27
2018-03-07T07:56:45.356Z,104.33
2018-03-07T07:59:14.030Z,97.47
2018-03-07T08:01:42.362Z,94.20
2018-03-07T08:04:09.929Z,100.67
2018-03-07T08:06:37.538Z,121.90
2018-03-07T08:09:05.858Z,106.67
2018-03-07T08:11:33.433Z,137.20
2018-03-07T08:14:01.056Z,101.30
2018-03-07T08:16:28.625Z,115.70
2018-03-07T08:18:56.185Z,96.60
2018-03-07T08:21:24.043Z,104.53
2018-03-07T08:23:51.616Z,96.93
2018-03-07T08:26:19.200Z,98.37
2018-03-07T08:28:46.806Z,101.27
2018-03-07T08:31:15.215Z,95.33
2018-03-07T08:33:42.775Z,102.07
2018-03-07T08:36:10.392Z,109.87
2018-03-07T08:38:38.723Z,125.60
2018-03-07T08:41:06.355Z,104.10
2018-03-07T08:43:34.459Z,104.33
2018-03-07T08:46:03.622Z,114.67
2018-03-07T08:48:32.646Z,117.00
2018-03-07T08:51:00.524Z,106.77
2018-03-07T08:53:28.860Z,105.57
2018-03-07T08:55:56.436Z,120.03
2018-03-07T08:58:24.404Z,117.63
2018-03-07T09:00:51.980Z,112.47
2018-03-07T09:03:19.545Z,107.63
2018-03-07T09:05:48.428Z,116.10
2018-03-07T09:08:16.055Z,103.80
2018-03-07T09:10:44.464Z,116.67
2018-03-07T09:13:12.438Z,116.47
2018-03-07T09:15:40.012Z,113.07
2018-03-07T09:18:07.583Z,109.23
2018-03-07T09:20:36.363Z,108.20
2018-03-07T09:23:03.911Z,107.33
2018-03-07T09:25:31.508Z,102.70
2018-03-07T09:27:59.368Z,90.33
2018-03-07T09:30:26.947Z,88.33
2018-03-07T09:32:54.524Z,72.03
2018-03-07T09:35:22.118Z,68.27
2018-03-07T09:37:50.460Z,58.03
2018-03-07T09:40:18.170Z,57.67
2018-03-07T09:42:46.560Z,58.33
2018-03-07T09:45:14.128Z,64.60
2018-03-07T09:47:41.690Z,63.63
2018-03-07T09:50:09.599Z,53.90
2018-03-07T09:52:37.196Z,49.47
2018-03-07T09:55:05.525Z,43.77
2018-03-07T09:57:33.129Z,48.67
2018-03-07T10:00:01.509Z,44.57
2018-03-07T10:02:29.842Z,40.93
2018-03-07T10:04:57.828Z,38.10
2018-03-07T10:07:25.384Z,36.17
2018-03-07T10:09:54.471Z,31.73
2018-03-07T10:12:22.062Z,33.97
2018-03-07T10:14:50.385Z,32.80
2018-03-07T10:17:17.974Z,32.73
2018-03-07T10:19:45.925Z,30.13
2018-03-07T10:22:13.512Z,31.00
2018-03-07T10:24:41.124Z,27.97
2018-03-07T10:27:08.730Z,31.10
2018-03-07T10:29:36.340Z,29.53
2018-03-07T10:32:03.900Z,26.53
2018-03-07T10:34:31.872Z,29.13
2018-03-07T10:36:59.452Z,31.47
2018-03-07T10:39:27.019Z,17.80
2018-03-07T10:41:54.632Z,9.27
2018-03-07T10:44:22.224Z,20.07
2018-03-07T10:46:49.792Z,15.77
2018-03-07T10:49:17.813Z,13.80
2018-03-07T10:51:45.384Z,13.43
2018-03-07T10:54:13.027Z,20.13
2018-03-07T10:56:41.814Z,22.07
2018-03-07T10:59:09.428Z,20.23
2018-03-07T11:01:36.998Z,18.57
2018-03-07T11:04:06.387Z,19.90
2018-03-07T11:06:33.958Z,24.83
2018-03-07T11:09:01.499Z,22.23
2018-03-07T11:11:29.471Z,16.47
2018-03-07T11:13:57.082Z,19.47
2018-03-07T11:16:25.627Z,20.30
2018-03-07T11:18:53.233Z,19.50
2018-03-07T11:21:20.820Z,18.07
2018-03-07T11:23:48.423Z,16.60
2018-03-07T11:26:17.076Z,18.13
2018-03-07T11:28:44.637Z,17.00
2018-03-07T11:31:12.209Z,17.23
2018-03-07T11:33:40.984Z,16.30
2018-03-07T11:36:08.560Z,18.50
2018-03-07T11:38:36.442Z,17.30
2018-03-07T11:41:04.837Z,16.83
2018-03-07T11:43:32.415Z,17.57
2018-03-07T11:46:00.003Z,14.87
2018-03-07T11:48:27.623Z,15.10
2018-03-07T11:50:55.202Z,18.67
2018-03-07T11:53:22.765Z,15.57
2018-03-07T11:55:51.129Z,17.77
2018-03-07T11:58:18.684Z,19.80
2018-03-07T12:00:46.265Z,15.70
2018-03-07T12:03:14.563Z,16.17
2018-03-07T12:05:42.123Z,14.73
2018-03-07T12:08:09.746Z,14.40
2018-03-07T12:10:37.636Z,15.70
2018-03-07T12:13:05.420Z,17.30
2018-03-07T12:15:33.090Z,13.47
2018-03-07T12:18:01.731Z,13.90
2018-03-07T12:20:29.355Z,16.80
2018-03-07T12:22:57.766Z,17.40
2018-03-07T12:25:25.735Z,17.70
2018-03-07T12:27:53.321Z,14.70
2018-03-07T12:30:20.906Z,13.63
2018-03-07T12:32:49.308Z,14.83
2018-03-07T12:35:16.888Z,15.23
2018-03-07T12:37:44.457Z,14.97
2018-03-07T12:40:12.089Z,12.87
2018-03-07T12:42:39.692Z,12.20
2018-03-07T12:45:07.306Z,15.03
2018-03-07T12:47:34.895Z,13.27
2018-03-07T12:50:02.538Z,16.10
2018-03-07T12:52:30.437Z,14.47
2018-03-07T12:54:58.015Z,14.10
2018-03-07T12:57:26.364Z,13.10
2018-03-07T12:59:54.243Z,14.53
2018-03-07T13:02:21.804Z,13.37
2018-03-07T13:04:49.375Z,12.90
2018-03-07T13:07:17.328Z,13.27
2018-03-07T13:09:44.911Z,13.93
2018-03-07T13:12:13.250Z,13.93
2018-03-07T13:14:40.848Z,12.40
2018-03-07T13:17:09.509Z,12.57
2018-03-07T13:19:37.087Z,14.30
2018-03-07T13:22:04.657Z,21.73
2018-03-07T13:24:33.002Z,14.33
2018-03-07T13:27:00.626Z,15.80
2018-03-07T13:29:28.236Z,15.90
2018-03-07T13:31:56.583Z,17.70
2018-03-07T13:34:24.186Z,16.83
2018-03-07T13:36:52.551Z,16.97
2018-03-07T13:39:20.128Z,16.17
2018-03-07T13:41:48.490Z,20.53
2018-03-07T13:44:16.062Z,15.50
2018-03-07T13:46:44.453Z,17.30
2018-03-07T13:49:12.793Z,19.60
2018-03-07T13:51:40.370Z,19.27
2018-03-07T13:54:08.725Z,18.57
2018-03-07T13:56:36.332Z,19.50
2018-03-07T13:59:04.028Z,17.77
2018-03-07T14:01:31.608Z,16.30
2018-03-07T14:03:59.566Z,18.53
2018-03-07T14:06:27.148Z,23.87
2018-03-07T14:08:55.499Z,19.43
2018-03-07T14:11:23.103Z,17.20
2018-03-07T14:13:51.439Z,17.00
2018-03-07T14:16:19.152Z,23.93
2018-03-07T14:18:46.714Z,19.07
2018-03-07T14:21:14.469Z,18.07
2018-03-07T14:23:42.025Z,20.47
2018-03-07T14:26:10.668Z,20.10
2018-03-07T14:28:38.249Z,19.80
2018-03-07T14:31:05.843Z,19.37
2018-03-07T14:33:34.479Z,18.30
2018-03-07T14:36:02.219Z,18.47
2018-03-07T14:38:30.043Z,16.70
2018-03-07T14:40:58.085Z,20.70
2018-03-07T14:43:26.429Z,19.07
2018-03-07T14:45:54.002Z,18.13
2018-03-07T14:48:21.616Z,19.13
2018-03-07T14:50:49.202Z,19.20
2018-03-07T14:53:16.803Z,17.97
2018-03-07T14:55:44.371Z,19.67
2018-03-07T14:58:12.758Z,19.90
2018-03-07T15:00:41.219Z,17.27
2018-03-07T15:03:09.123Z,20.20
2018-03-07T15:05:36.729Z,18.00
2018-03-07T15:08:05.392Z,19.00
2018-03-07T15:10:32.985Z,22.00
2018-03-07T15:13:02.391Z,20.10
2018-03-07T15:15:30.007Z,19.03
2018-03-07T15:17:57.591Z,18.80
2018-03-07T15:20:25.182Z,16.10
2018-03-07T15:22:53.533Z,17.70
2018-03-07T15:25:21.102Z,20.40
2018-03-07T15:27:48.712Z,19.70
2018-03-07T15:30:16.312Z,19.97
2018-03-07T15:32:44.034Z,19.13
2018-03-07T15:35:11.598Z,18.90
2018-03-07T15:37:39.204Z,17.00
2018-03-07T15:40:06.788Z,18.40
2018-03-07T15:42:35.117Z,20.53
2018-03-07T15:45:02.727Z,22.60
2018-03-07T15:47:30.313Z,18.30
2018-03-07T15:49:57.924Z,33.73
2018-03-07T15:52:26.534Z,41.00
2018-03-07T15:54:54.124Z,36.97
2018-03-07T15:57:21.702Z,36.97
2018-03-07T15:59:51.206Z,43.13
2018-03-07T16:02:18.777Z,34.50
2018-03-07T16:04:46.352Z,24.50
2018-03-07T16:07:15.007Z,23.17
2018-03-07T16:09:42.571Z,23.43
2018-03-07T16:12:11.770Z,22.57
2018-03-07T16:14:39.629Z,21.13
2018-03-07T16:17:07.212Z,24.43
2018-03-07T16:19:35.555Z,22.80
2018-03-07T16:22:03.155Z,26.63
2018-03-07T16:24:31.503Z,27.87
2018-03-07T16:26:59.080Z,27.63
2018-03-07T16:29:27.014Z,25.17
2018-03-07T16:31:54.605Z,25.13
2018-03-07T16:34:22.141Z,26.60
2018-03-07T16:36:49.738Z,26.30
2018-03-07T16:39:18.069Z,28.30
2018-03-07T16:41:45.657Z,31.07
2018-03-07T16:44:13.282Z,29.47
2018-03-07T16:46:40.855Z,33.50
2018-03-07T16:49:08.432Z,33.63
2018-03-07T16:51:37.805Z,37.17
2018-03-07T16:54:05.387Z,37.97
2018-03-07T16:56:33.728Z,39.80
2018-03-07T16:59:01.624Z,40.30
2018-03-07T17:01:29.224Z,44.17
2018-03-07T17:03:57.553Z,42.50
2018-03-07T17:06:25.178Z,40.30
2018-03-07T17:08:52.790Z,43.43
2018-03-07T17:11:20.374Z,50.77
2018-03-07T17:13:48.730Z,42.90
2018-03-07T17:16:17.141Z,47.10
2018-03-07T17:18:44.720Z,51.00
2018-03-07T17:21:12.468Z,48.43
2018-03-07T17:23:40.214Z,47.60
2018-03-07T17:26:08.553Z,50.60
2018-03-07T17:28:36.429Z,43.97
2018-03-07T17:31:04.772Z,49.80
2018-03-07T17:33:32.343Z,51.70
2018-03-07T17:35:59.957Z,51.57
2018-03-07T17:38:28.328Z,47.77
2018-03-07T17:40:55.864Z,59.20
2018-03-07T17:43:23.465Z,48.63
2018-03-07T17:45:51.061Z,60.13
2018-03-07T17:48:18.639Z,48.97
2018-03-07T17:50:46.994Z,59.67
2018-03-07T17:53:14.573Z,48.97
2018-03-07T17:55:43.242Z,54.23
2018-03-07T17:58:10.873Z,70.50
2018-03-07T18:00:38.448Z,53.93
2018-03-07T18:03:06.074Z,51.87
2018-03-07T18:05:33.656Z,50.60
2018-03-07T18:08:01.220Z,48.60
2018-03-07T18:10:29.082Z,43.13
2018-03-07T18:12:56.666Z,56.77
2018-03-07T18:15:24.227Z,51.10
2018-03-07T18:17:53.023Z,52.47
2018-03-07T18:20:21.367Z,48.57
2018-03-07T18:22:48.925Z,70.80
2018-03-07T18:25:16.827Z,78.07
2018-03-07T18:27:44.449Z,65.07
2018-03-07T18:30:12.028Z,62.00
2018-03-07T18:32:39.648Z,60.83
2018-03-07T18:35:07.220Z,58.57
2018-03-07T18:37:34.793Z,68.70
2018-03-07T18:40:02.599Z,64.90
2018-03-07T18:42:30.914Z,66.67
2018-03-07T18:44:58.484Z,63.63
2018-03-07T18:47:26.078Z,58.93
2018-03-07T18:49:53.638Z,57.90
2018-03-07T18:52:21.217Z,67.13
2018-03-07T18:54:49.596Z,55.10
2018-03-07T18:57:17.241Z,70.33
2018-03-07T18:59:46.358Z,59.50
2018-03-07T19:02:15.059Z,66.43
2018-03-07T19:04:42.638Z,70.00
2018-03-07T19:07:10.226Z,85.57
2018-03-07T19:09:38.102Z,68.87
2018-03-07T19:12:05.676Z,65.03
2018-03-07T19:14:34.019Z,72.87
2018-03-07T19:17:02.013Z,75.97
2018-03-07T19:19:30.393Z,96.67
2018-03-07T19:21:57.962Z,79.00
2018-03-07T19:24:26.610Z,67.37
2018-03-07T19:26:54.172Z,78.30
2018-03-07T19:29:21.770Z,72.83
2018-03-07T19:31:50.176Z,59.30
2018-03-07T19:34:17.848Z,62.77
2018-03-07T19:36:46.471Z,63.80
2018-03-07T19:39:15.862Z,59.40
2018-03-07T19:41:43.436Z,57.83
2018-03-07T19:44:11.028Z,60.33
2018-03-07T19:46:38.999Z,56.20
2018-03-07T19:49:06.576Z,55.90
2018-03-07T19:51:34.180Z,46.47
2018-03-07T19:54:03.056Z,50.50
2018-03-07T19:56:30.798Z,44.33
2018-03-07T19:58:58.381Z,46.47
2018-03-07T20:01:26.345Z,46.30
2018-03-07T20:03:53.919Z,33.40
2018-03-07T20:06:22.265Z,43.47
2018-03-07T20:08:49.866Z,48.10
2018-03-07T20:11:17.479Z,42.03
2018-03-07T20:13:45.061Z,36.13
2018-03-07T20:16:12.935Z,38.43
2018-03-07T20:18:40.511Z,35.50
2018-03-07T20:21:08.861Z,40.73
2018-03-07T20:23:36.743Z,32.93
2018-03-07T20:26:04.351Z,31.80
2018-03-07T20:28:32.926Z,37.50
2018-03-07T20:31:00.983Z,35.53
2018-03-07T20:33:29.327Z,34.30
2018-03-07T20:35:56.988Z,35.33
2018-03-07T20:38:24.734Z,33.00
2018-03-07T20:40:52.343Z,32.93
2018-03-07T20:43:20.688Z,33.03
2018-03-07T20:45:48.951Z,23.30
2018-03-07T20:48:16.601Z,23.30
2018-03-07T20:50:44.245Z,21.97
2018-03-07T20:53:11.848Z,23.20
2018-03-07T20:55:39.781Z,21.40
2018-03-07T20:58:07.527Z,19.30
2018-03-07T21:00:36.020Z,20.67
2018-03-07T21:03:03.587Z,22.53
2018-03-07T21:05:31.285Z,18.63
2018-03-07T21:07:59.004Z,24.40
2018-03-07T21:10:26.939Z,22.60
2018-03-07T21:12:55.330Z,23.00
2018-03-07T21:15:22.987Z,22.73
2018-03-07T21:17:50.586Z,23.20
2018-03-07T21:20:18.565Z,25.53
2018-03-07T21:22:46.136Z,26.93
2018-03-07T21:25:14.605Z,27.83
2018-03-07T21:27:42.309Z,28.23
2018-03-07T21:30:10.654Z,28.63
2018-03-07T21:32:38.333Z,32.13
2018-03-07T21:35:07.171Z,27.77
2018-03-07T21:37:34.757Z,32.07
2018-03-07T21:40:04.794Z,29.97
2018-03-07T21:42:33.550Z,32.07
2018-03-07T21:45:01.289Z,32.27
2018-03-07T21:47:28.984Z,36.37
2018-03-07T21:49:56.708Z,44.70
2018-03-07T21:52:24.313Z,50.50
2018-03-07T21:54:52.690Z,53.70
2018-03-07T21:57:20.353Z,57.53
2018-03-07T21:59:48.052Z,54.63
2018-03-07T22:02:16.557Z,62.93
2018-03-07T22:04:44.237Z,67.90
2018-03-07T22:07:11.859Z,59.40
2018-03-07T22:09:39.478Z,61.60
2018-03-07T22:12:07.081Z,66.30
2018-03-07T22:14:34.732Z,63.67
2018-03-07T22:17:02.643Z,57.07
2018-03-07T22:19:30.493Z,66.80
2018-03-07T22:21:59.072Z,59.27
2018-03-07T22:24:26.654Z,60.20
2018-03-07T22:26:54.348Z,65.73
2018-03-07T22:29:23.204Z,66.03
2018-03-07T22:31:50.946Z,65.03
2018-03-07T22:34:18.596Z,65.10
2018-03-07T22:36:46.163Z,65.80
2018-03-07T22:39:13.885Z,62.50
2018-03-07T22:41:42.249Z,67.00
2018-03-07T22:44:09.931Z,64.87
2018-03-07T22:46:38.290Z,67.90
2018-03-07T22:49:05.940Z,66.17
2018-03-07T22:51:33.898Z,67.93
2018-03-07T22:54:01.877Z,68.80
2018-03-07T22:56:31.063Z,71.63
2018-03-07T22:58:58.692Z,74.40
2018-03-07T23:01:26.297Z,80.03
2018-03-07T23:03:54.799Z,75.03
2018-03-07T23:06:23.328Z,75.63
2018-03-07T23:08:51.111Z,80.57
2018-03-07T23:11:18.713Z,81.37
2018-03-07T23:13:46.326Z,90.77
2018-03-07T23:16:13.986Z,90.20
2018-03-07T23:18:41.594Z,87.20
2018-03-07T23:21:10.066Z,96.43
2018-03-07T23:23:37.745Z,104.30
2018-03-07T23:26:05.405Z,94.20
2018-03-07T23:28:33.800Z,94.97
2018-03-07T23:31:01.701Z,105.63
2018-03-07T23:33:29.310Z,97.03
2018-03-07T23:35:56.980Z,98.23
2018-03-07T23:38:24.885Z,97.17
2018-03-07T23:40:52.570Z,112.97
2018-03-07T23:43:20.207Z,112.07
2018-03-07T23:45:48.258Z,103.47
2018-03-07T23:48:15.857Z,106.53
2018-03-07T23:50:43.455Z,123.40
2018-03-07T23:53:11.044Z,130.53
2018-03-07T23:55:39.088Z,134.47
2018-03-07T23:58:06.756Z,139.27
